createdAt,value
2024-01-16T00:02:25.924Z,95711.98
2024-01-16T00:04:54.042Z,95725.17
2024-01-16T00:07:22.279Z,95731.13
2024-01-16T00:09:53.815Z,95727.73
2024-01-16T00:12:22.365Z,95721.83
2024-01-16T00:14:50.554Z,95728.18
2024-01-16T00:17:18.936Z,95738.58
2024-01-16T00:19:47.031Z,95746.95
2024-01-16T00:22:15.267Z,95756.36
2024-01-16T00:24:43.381Z,95758.14
2024-01-16T00:27:11.451Z,95762.30
2024-01-16T00:29:40.224Z,95768.70
2024-01-16T00:32:08.394Z,95769.71
2024-01-16T00:34:37.249Z,95780.75
2024-01-16T00:37:06.699Z,95791.65
2024-01-16T00:39:34.833Z,95792.41
2024-01-16T00:42:07.114Z,95797.52
2024-01-16T00:44:36.242Z,95806.09
2024-01-16T00:47:06.823Z,95802.88
2024-01-16T00:49:36.866Z,95810.39
2024-01-16T00:52:05.802Z,95807.81
2024-01-16T00:54:34.154Z,95810.70
2024-01-16T00:57:03.144Z,95822.29
2024-01-16T00:59:31.344Z,95810.64
2024-01-16T01:01:59.711Z,95814.11
2024-01-16T01:04:28.096Z,95804.02
2024-01-16T01:06:56.195Z,95800.33
2024-01-16T01:09:24.280Z,95799.58
2024-01-16T01:11:52.517Z,95808.45
2024-01-16T01:14:20.707Z,95827.28
2024-01-16T01:16:48.800Z,95829.44
2024-01-16T01:19:16.966Z,95829.56
2024-01-16T01:21:45.402Z,95834.46
2024-01-16T01:24:13.427Z,95842.11
2024-01-16T01:26:44.593Z,95843.02
2024-01-16T01:29:12.758Z,95843.81
2024-01-16T01:31:40.773Z,95848.91
2024-01-16T01:34:09.029Z,95860.11
2024-01-16T01:36:37.363Z,95868.15
2024-01-16T01:39:05.623Z,95874.20
2024-01-16T01:41:33.681Z,95871.09
2024-01-16T01:44:01.784Z,95861.28
2024-01-16T01:46:32.619Z,95851.89
2024-01-16T01:49:01.144Z,95846.85
2024-01-16T01:51:30.062Z,95848.27
2024-01-16T01:53:59.909Z,95852.79
2024-01-16T01:56:28.906Z,95854.05
2024-01-16T01:58:59.911Z,95860.77
2024-01-16T02:01:30.635Z,95863.85
2024-01-16T02:04:00.352Z,95862.11
2024-01-16T02:06:29.436Z,95859.91
2024-01-16T02:08:58.096Z,95860.38
2024-01-16T02:11:26.927Z,95864.83
2024-01-16T02:13:55.118Z,95869.13
2024-01-16T02:16:24.383Z,95870.48
2024-01-16T02:18:53.612Z,95873.73
2024-01-16T02:21:24.183Z,95879.75
2024-01-16T02:23:52.971Z,95883.64
2024-01-16T02:26:21.861Z,95889.81
2024-01-16T02:28:50.264Z,95891.97
2024-01-16T02:31:19.232Z,95887.23
2024-01-16T02:33:47.527Z,95883.05
2024-01-16T02:36:15.739Z,95877.22
2024-01-16T02:38:46.060Z,95873.27
2024-01-16T02:41:17.185Z,95874.45
2024-01-16T02:43:45.938Z,95876.30
2024-01-16T02:46:15.698Z,95886.52
2024-01-16T02:48:44.087Z,95892.77
2024-01-16T02:51:12.586Z,95896.46
2024-01-16T02:53:40.974Z,95896.96
2024-01-16T02:56:09.979Z,95905.85
2024-01-16T02:58:38.104Z,95917.29
2024-01-16T03:01:06.545Z,95926.70
2024-01-16T03:03:35.085Z,95927.94
2024-01-16T03:06:03.431Z,95937.03
2024-01-16T03:08:31.739Z,95938.70
2024-01-16T03:10:59.748Z,95941.77
2024-01-16T03:13:28.738Z,95943.95
2024-01-16T03:15:56.935Z,95943.30
2024-01-16T03:18:25.097Z,95948.40
2024-01-16T03:20:53.400Z,95945.64
2024-01-16T03:23:21.516Z,95947.05
2024-01-16T03:25:49.556Z,95946.61
2024-01-16T03:28:17.578Z,95939.59
2024-01-16T03:30:45.850Z,95942.19
2024-01-16T03:33:14.290Z,95939.56
2024-01-16T03:35:43.134Z,95926.50
2024-01-16T03:38:11.280Z,95923.63
2024-01-16T03:40:39.450Z,95936.70
2024-01-16T03:43:07.684Z,95948.02
2024-01-16T03:45:35.860Z,95955.09
2024-01-16T03:48:07.428Z,95953.66
2024-01-16T03:50:45.205Z,95951.58
2024-01-16T03:53:14.119Z,95949.59
2024-01-16T03:55:42.735Z,95941.19
2024-01-16T03:58:13.467Z,95937.80
2024-01-16T04:00:42.268Z,95938.91
2024-01-16T04:03:10.502Z,95946.89
2024-01-16T04:05:38.721Z,95955.49
2024-01-16T04:08:16.801Z,95968.42
2024-01-16T04:10:51.596Z,95975.36
2024-01-16T04:13:48.184Z,95983.83
2024-01-16T04:16:16.814Z,95992.02
2024-01-16T04:18:52.598Z,95997.40
2024-01-16T04:21:21.060Z,96001.48
2024-01-16T04:24:07.263Z,96002.13
2024-01-16T04:26:39.081Z,96009.34
2024-01-16T04:29:07.338Z,96015.67
2024-01-16T04:31:44.195Z,96015.63
2024-01-16T04:34:12.735Z,96016.60
2024-01-16T04:36:42.951Z,96021.23
2024-01-16T04:39:13.212Z,96025.45
2024-01-16T04:41:41.303Z,96029.45
2024-01-16T04:44:09.430Z,96030.85
2024-01-16T04:46:37.556Z,96036.36
2024-01-16T04:49:05.652Z,96033.88
2024-01-16T04:51:33.754Z,96037.52
2024-01-16T04:54:19.622Z,96045.89
2024-01-16T04:56:52.273Z,96050.92
2024-01-16T04:59:32.504Z,96058.71
2024-01-16T05:02:10.445Z,96058.80
2024-01-16T05:04:51.608Z,96060.44
2024-01-16T05:07:30.119Z,96056.80
2024-01-16T05:09:59.313Z,96063.58
2024-01-16T05:12:27.354Z,96068.36
2024-01-16T05:14:55.475Z,96077.28
2024-01-16T05:17:23.965Z,96086.77
2024-01-16T05:19:52.234Z,96087.80
2024-01-16T05:22:20.496Z,96096.70
2024-01-16T05:24:48.577Z,96098.17
2024-01-16T05:27:16.673Z,96100.48
2024-01-16T05:29:45.076Z,96103.10
2024-01-16T05:32:15.152Z,96103.85
2024-01-16T05:34:43.249Z,96107.80
2024-01-16T05:37:11.918Z,96111.88
2024-01-16T05:39:40.119Z,96113.20
2024-01-16T05:42:08.348Z,96118.61
2024-01-16T05:44:36.546Z,96122.45
2024-01-16T05:47:05.221Z,96125.89
2024-01-16T05:49:33.507Z,96130.00
2024-01-16T05:52:01.797Z,96136.48
2024-01-16T05:54:30.218Z,96141.21
2024-01-16T05:56:58.515Z,96148.09
2024-01-16T05:59:26.774Z,96157.61
2024-01-16T06:01:54.951Z,96156.55
2024-01-16T06:04:23.077Z,96160.43
2024-01-16T06:06:51.392Z,96162.61
2024-01-16T06:09:19.766Z,96165.89
2024-01-16T06:11:49.320Z,96164.54
2024-01-16T06:14:22.893Z,96165.05
2024-01-16T06:16:52.169Z,96166.88
2024-01-16T06:19:20.355Z,96166.92
2024-01-16T06:21:48.607Z,96168.03
2024-01-16T06:24:16.949Z,96170.11
2024-01-16T06:26:45.180Z,96176.77
2024-01-16T06:29:21.512Z,96182.23
2024-01-16T06:31:56.413Z,96186.44
2024-01-16T06:34:25.389Z,96188.46
2024-01-16T06:36:53.534Z,96187.21
2024-01-16T06:39:21.498Z,96192.03
2024-01-16T06:41:50.456Z,96197.27
2024-01-16T06:44:20.173Z,96203.27
2024-01-16T06:46:48.262Z,96207.70
2024-01-16T06:49:16.496Z,96214.05
2024-01-16T06:51:45.075Z,96222.27
2024-01-16T06:54:13.271Z,96233.77
2024-01-16T06:56:41.673Z,96239.90
2024-01-16T06:59:12.213Z,96241.20
2024-01-16T07:01:40.781Z,96244.65
2024-01-16T07:04:09.265Z,96251.13
2024-01-16T07:06:37.847Z,96258.13
2024-01-16T07:09:06.495Z,96265.28
2024-01-16T07:11:35.042Z,96267.97
2024-01-16T07:14:04.464Z,96269.23
2024-01-16T07:16:33.690Z,96275.29
2024-01-16T07:19:03.595Z,96278.41
2024-01-16T07:21:32.188Z,96276.42
2024-01-16T07:24:00.269Z,96277.70
2024-01-16T07:26:30.850Z,96280.39
2024-01-16T07:28:59.067Z,96283.89
2024-01-16T07:31:27.425Z,96288.79
2024-01-16T07:33:55.710Z,96291.05
2024-01-16T07:36:24.234Z,96294.11
2024-01-16T07:38:55.428Z,96299.14
2024-01-16T07:41:23.706Z,96300.40
2024-01-16T07:43:51.745Z,96305.92
2024-01-16T07:46:19.853Z,96309.01
2024-01-16T07:48:48.387Z,96310.67
2024-01-16T07:51:17.398Z,96312.91
2024-01-16T07:53:45.646Z,96317.95
2024-01-16T07:56:13.838Z,96321.00
2024-01-16T07:58:43.062Z,96323.10
2024-01-16T08:01:11.425Z,96326.09
2024-01-16T08:03:40.026Z,96330.11
2024-01-16T08:06:08.347Z,96337.98
2024-01-16T08:08:36.849Z,96337.30
2024-01-16T08:11:05.085Z,96347.33
2024-01-16T08:13:33.027Z,96350.48
2024-01-16T08:16:02.468Z,96349.59
2024-01-16T08:18:31.021Z,96352.27
2024-01-16T08:20:59.378Z,96354.79
2024-01-16T08:23:27.575Z,96354.30
2024-01-16T08:25:56.111Z,96358.93
2024-01-16T08:28:27.303Z,96360.56
2024-01-16T08:30:55.292Z,96363.35
2024-01-16T08:33:31.099Z,96369.14
2024-01-16T08:36:05.717Z,96377.13
2024-01-16T08:38:33.884Z,96379.11
2024-01-16T08:41:01.989Z,96389.23
2024-01-16T08:43:30.032Z,96397.04
2024-01-16T08:45:58.105Z,96395.84
2024-01-16T08:48:26.989Z,96400.88
2024-01-16T08:50:55.563Z,96400.28
2024-01-16T08:53:24.821Z,96404.76
2024-01-16T08:55:53.067Z,96410.37
2024-01-16T08:58:21.131Z,96410.70
2024-01-16T09:00:49.287Z,96413.64
2024-01-16T09:03:19.235Z,96415.31
2024-01-16T09:05:47.801Z,96414.64
2024-01-16T09:08:15.970Z,96416.99
2024-01-16T09:10:44.347Z,96419.30
2024-01-16T09:13:14.242Z,96419.48
2024-01-16T09:15:42.478Z,96419.64
2024-01-16T09:18:10.666Z,96423.10
2024-01-16T09:20:38.846Z,96424.67
2024-01-16T09:23:07.072Z,96426.27
2024-01-16T09:25:36.090Z,96428.98
2024-01-16T09:28:04.405Z,96433.91
2024-01-16T09:30:32.629Z,96431.21
2024-01-16T09:33:00.723Z,96429.88
2024-01-16T09:35:29.509Z,96433.56
2024-01-16T09:37:57.631Z,96435.23
2024-01-16T09:40:26.100Z,96427.71
2024-01-16T09:42:54.506Z,96426.35
2024-01-16T09:45:23.166Z,96426.38
2024-01-16T09:47:53.730Z,96433.38
2024-01-16T09:50:23.952Z,96433.38
2024-01-16T09:52:52.266Z,96435.70
2024-01-16T09:55:20.583Z,96437.36
2024-01-16T09:57:53.543Z,96440.49
2024-01-16T10:00:22.778Z,96436.27
2024-01-16T10:02:51.783Z,96440.23
2024-01-16T10:05:20.082Z,96437.17
2024-01-16T10:07:49.437Z,96431.52
2024-01-16T10:10:24.246Z,96441.42
2024-01-16T10:12:56.953Z,96444.56
2024-01-16T10:15:25.502Z,96449.27
2024-01-16T10:17:54.018Z,96445.53
2024-01-16T10:20:34.307Z,96450.64
2024-01-16T10:23:04.812Z,96455.92
2024-01-16T10:25:33.277Z,96464.56
2024-01-16T10:28:06.367Z,96469.69
2024-01-16T10:30:34.964Z,96473.52
2024-01-16T10:33:23.773Z,96481.13
2024-01-16T10:35:51.959Z,96482.42
2024-01-16T10:38:27.228Z,96485.95
2024-01-16T10:41:19.205Z,96485.30
2024-01-16T10:43:47.329Z,96482.73
2024-01-16T10:46:18.818Z,96482.65
2024-01-16T10:49:04.174Z,96481.61
2024-01-16T10:51:33.671Z,96479.61
2024-01-16T10:54:09.554Z,96488.61
2024-01-16T10:56:38.183Z,96483.45
2024-01-16T10:59:26.181Z,96480.86
2024-01-16T11:01:57.475Z,96484.86
2024-01-16T11:04:26.101Z,96490.27
2024-01-16T11:06:55.890Z,96494.11
2024-01-16T11:09:25.027Z,96498.09
2024-01-16T11:11:55.731Z,96497.73
2024-01-16T11:14:24.680Z,96500.80
2024-01-16T11:16:54.114Z,96503.34
2024-01-16T11:19:37.926Z,96502.95
2024-01-16T11:22:11.729Z,96500.77
2024-01-16T11:24:41.265Z,96507.14
2024-01-16T11:27:09.594Z,96507.50
2024-01-16T11:29:38.421Z,96508.35
2024-01-16T11:32:13.949Z,96506.85
2024-01-16T11:34:53.556Z,96511.64
2024-01-16T11:37:33.968Z,96511.85
2024-01-16T11:40:27.196Z,96512.23
2024-01-16T11:42:57.364Z,96513.93
2024-01-16T11:45:29.175Z,96523.29
2024-01-16T11:48:13.617Z,96524.20
2024-01-16T11:50:43.752Z,96529.50
2024-01-16T11:53:12.132Z,96531.41
2024-01-16T11:56:13.360Z,96535.20
2024-01-16T11:59:04.090Z,96537.77
2024-01-16T12:01:33.482Z,96544.51
2024-01-16T12:04:08.055Z,96547.84
2024-01-16T12:06:37.602Z,96553.86
2024-01-16T12:09:27.638Z,96556.05
2024-01-16T12:12:02.423Z,96560.84
2024-01-16T12:14:31.528Z,96557.54
2024-01-16T12:17:13.350Z,96562.73
2024-01-16T12:19:43.945Z,96558.67
2024-01-16T12:22:15.291Z,96559.69
2024-01-16T12:24:43.836Z,96561.42
2024-01-16T12:27:12.888Z,96561.52
2024-01-16T12:29:44.003Z,96559.59
2024-01-16T12:32:13.415Z,96559.72
2024-01-16T12:34:47.339Z,96566.63
2024-01-16T12:37:15.366Z,96567.40
2024-01-16T12:39:44.726Z,96567.23
2024-01-16T12:42:13.769Z,96569.50
2024-01-16T12:44:42.030Z,96574.50
2024-01-16T12:47:10.248Z,96567.28
2024-01-16T12:49:44.469Z,96565.51
2024-01-16T12:52:23.738Z,96567.86
2024-01-16T12:55:06.079Z,96569.10
2024-01-16T12:57:34.221Z,96575.22
2024-01-16T13:00:05.829Z,96574.57
2024-01-16T13:02:35.144Z,96577.60
2024-01-16T13:05:05.228Z,96578.55
2024-01-16T13:07:34.587Z,96580.84
2024-01-16T13:10:10.190Z,96581.92
2024-01-16T13:12:38.972Z,96587.30
2024-01-16T13:15:07.512Z,96589.55
2024-01-16T13:17:36.513Z,96589.79
2024-01-16T13:20:08.818Z,96594.91
2024-01-16T13:22:44.537Z,96601.32
2024-01-16T13:25:16.011Z,96608.39
2024-01-16T13:27:44.077Z,96607.89
2024-01-16T13:30:13.445Z,96614.20
2024-01-16T13:32:42.041Z,96622.42
2024-01-16T13:35:13.143Z,96622.02
2024-01-16T13:37:42.383Z,96624.25
2024-01-16T13:40:15.297Z,96626.15
2024-01-16T13:42:43.745Z,96627.19
2024-01-16T13:45:14.742Z,96631.66
2024-01-16T13:47:43.503Z,96632.12
2024-01-16T13:50:11.779Z,96638.01
2024-01-16T13:52:41.750Z,96643.52
2024-01-16T13:55:10.497Z,96654.11
2024-01-16T13:57:39.682Z,96652.77
2024-01-16T14:00:14.743Z,96657.90
2024-01-16T14:02:45.000Z,96661.95
2024-01-16T14:05:16.964Z,96667.88
2024-01-16T14:07:49.140Z,96670.79
2024-01-16T14:10:18.759Z,96676.67
2024-01-16T14:12:49.980Z,96681.33
2024-01-16T14:15:21.094Z,96688.70
2024-01-16T14:17:54.105Z,96695.45
2024-01-16T14:20:27.699Z,96698.84
2024-01-16T14:22:58.896Z,96697.64
2024-01-16T14:25:27.469Z,96704.08
2024-01-16T14:28:05.119Z,96705.20
2024-01-16T14:30:36.950Z,96707.91
2024-01-16T14:33:08.170Z,96707.13
2024-01-16T14:35:36.603Z,96707.88
2024-01-16T14:38:04.828Z,96711.25
2024-01-16T14:40:33.134Z,96717.42
2024-01-16T14:43:06.949Z,96724.67
2024-01-16T14:45:34.994Z,96730.38
2024-01-16T14:48:05.709Z,96735.60
2024-01-16T14:50:34.298Z,96742.30
2024-01-16T14:53:04.252Z,96740.72
2024-01-16T14:55:32.576Z,96741.45
2024-01-16T14:58:02.085Z,96748.58
2024-01-16T15:00:31.918Z,96753.51
2024-01-16T15:03:00.678Z,96758.68
2024-01-16T15:05:30.666Z,96760.73
2024-01-16T15:07:59.347Z,96769.77
2024-01-16T15:10:27.600Z,96773.55
2024-01-16T15:12:55.751Z,96779.96
2024-01-16T15:15:24.433Z,96780.09
2024-01-16T15:17:53.373Z,96782.89
2024-01-16T15:20:21.921Z,96789.88
2024-01-16T15:22:53.849Z,96791.44
2024-01-16T15:25:24.008Z,96790.78
2024-01-16T15:27:56.516Z,96789.38
2024-01-16T15:30:29.146Z,96786.96
2024-01-16T15:32:57.749Z,96791.86
2024-01-16T15:35:26.610Z,96800.57
2024-01-16T15:37:55.794Z,96806.48
2024-01-16T15:40:24.543Z,96807.34
2024-01-16T15:42:52.785Z,96808.92
2024-01-16T15:47:50.087Z,96810.61
2024-01-16T15:50:19.103Z,96811.61
2024-01-16T15:52:47.521Z,96810.09
2024-01-16T15:55:15.746Z,96810.89
2024-01-16T15:57:43.988Z,96814.44
2024-01-16T16:00:12.445Z,96823.09
2024-01-16T16:02:40.900Z,96827.49
2024-01-16T16:05:09.595Z,96832.88
2024-01-16T16:07:38.607Z,96835.52
2024-01-16T16:10:07.813Z,96833.31
2024-01-16T16:12:36.544Z,96836.59
2024-01-16T16:15:05.635Z,96834.67
2024-01-16T16:17:33.723Z,96832.89
2024-01-16T16:20:01.911Z,96832.34
2024-01-16T16:22:30.163Z,96832.55
2024-01-16T16:24:58.683Z,96830.71
2024-01-16T16:27:28.116Z,96837.00
2024-01-16T16:29:57.773Z,96837.63
2024-01-16T16:32:26.442Z,96841.20
2024-01-16T16:34:54.841Z,96844.03
2024-01-16T16:37:24.166Z,96842.25
2024-01-16T16:39:52.537Z,96843.27
2024-01-16T16:42:21.368Z,96844.11
2024-01-16T16:44:49.811Z,96849.30
2024-01-16T16:47:18.719Z,96847.48
2024-01-16T16:49:47.089Z,96851.73
2024-01-16T16:52:15.269Z,96857.04
2024-01-16T16:54:47.481Z,96861.19
2024-01-16T16:57:15.650Z,96859.65
2024-01-16T16:59:46.698Z,96860.65
2024-01-16T17:02:15.806Z,96864.70
2024-01-16T17:04:46.995Z,96864.89
2024-01-16T17:07:16.332Z,96864.14
2024-01-16T17:09:45.954Z,96864.57
2024-01-16T17:12:14.369Z,96866.02
2024-01-16T17:14:43.307Z,96871.56
2024-01-16T17:17:12.499Z,96873.61
2024-01-16T17:19:41.849Z,96877.26
2024-01-16T17:22:10.249Z,96883.86
2024-01-16T17:24:38.385Z,96883.02
2024-01-16T17:27:07.170Z,96886.44
2024-01-16T17:29:36.652Z,96889.17
2024-01-16T17:32:05.274Z,96893.95
2024-01-16T17:34:33.554Z,96902.50
2024-01-16T17:37:01.679Z,96903.27
2024-01-16T17:39:29.904Z,96908.05
2024-01-16T17:41:58.078Z,96910.29
2024-01-16T17:44:26.452Z,96912.95
2024-01-16T17:46:54.522Z,96916.23
2024-01-16T17:49:25.605Z,96920.33
2024-01-16T17:51:56.568Z,96924.11
2024-01-16T17:54:25.303Z,96925.64
2024-01-16T17:56:55.947Z,96934.17
2024-01-16T18:02:28.863Z,96942.48
2024-01-16T18:04:57.132Z,96943.92
2024-01-16T18:07:25.186Z,96942.38
2024-01-16T18:09:53.797Z,96942.33
2024-01-16T18:12:25.261Z,96944.66
2024-01-16T18:14:53.420Z,96948.52
2024-01-16T18:17:23.098Z,96953.88
2024-01-16T18:19:54.587Z,96959.47
2024-01-16T18:22:23.338Z,96964.48
2024-01-16T18:24:54.757Z,96969.86
2024-01-16T18:27:23.319Z,96973.34
2024-01-16T18:29:51.452Z,96978.98
2024-01-16T18:32:19.554Z,96981.69
2024-01-16T18:34:47.953Z,96989.06
2024-01-16T18:37:16.357Z,96991.64
2024-01-16T18:39:44.442Z,96991.59
2024-01-16T18:42:12.478Z,96995.81
2024-01-16T18:44:41.106Z,96999.59
2024-01-16T18:47:09.894Z,97001.05
2024-01-16T18:49:38.698Z,97001.23
2024-01-16T18:52:07.169Z,96998.46
2024-01-16T18:54:38.139Z,96996.02
2024-01-16T18:57:15.087Z,96996.54
2024-01-16T18:59:44.908Z,96992.55
2024-01-16T19:02:18.039Z,96994.55
2024-01-16T19:04:49.653Z,96989.85
2024-01-16T19:07:18.892Z,96991.11
2024-01-16T19:09:46.910Z,96986.02
2024-01-16T19:12:15.200Z,96981.95
2024-01-16T19:14:46.280Z,96979.73
2024-01-16T19:17:17.004Z,96987.45
2024-01-16T19:19:45.186Z,96989.53
2024-01-16T19:22:13.171Z,96993.63
2024-01-16T19:24:41.283Z,96997.50
2024-01-16T19:27:09.413Z,97000.17
2024-01-16T19:29:37.556Z,97008.90
2024-01-16T19:32:06.807Z,97013.07
2024-01-16T19:34:35.913Z,97015.92
2024-01-16T19:37:05.031Z,97015.14
2024-01-16T19:39:34.292Z,97018.32
2024-01-16T19:42:02.801Z,97020.18
2024-01-16T19:44:31.273Z,97017.94
2024-01-16T19:46:59.415Z,97017.59
2024-01-16T19:49:27.966Z,97018.78
2024-01-16T19:51:56.384Z,97017.34
2024-01-16T19:54:24.474Z,97022.20
2024-01-16T19:56:52.807Z,97026.13
2024-01-16T19:59:21.113Z,97028.26
2024-01-16T20:01:50.850Z,97028.40
2024-01-16T20:04:19.605Z,97027.79
2024-01-16T20:06:47.839Z,97032.59
2024-01-16T20:09:17.580Z,97042.03
2024-01-16T20:11:49.085Z,97043.55
2024-01-16T20:14:17.720Z,97051.06
2024-01-16T20:16:45.882Z,97050.60
2024-01-16T20:19:14.605Z,97047.34
2024-01-16T20:21:45.565Z,97048.48
2024-01-16T20:24:16.037Z,97049.52
2024-01-16T20:26:44.759Z,97049.52
2024-01-16T20:29:13.870Z,97056.27
2024-01-16T20:31:43.344Z,97059.21
2024-01-16T20:34:13.186Z,97060.91
2024-01-16T20:36:42.174Z,97058.57
2024-01-16T20:39:10.891Z,97059.79
2024-01-16T20:41:39.185Z,97058.55
2024-01-16T20:44:19.651Z,97058.05
2024-01-16T20:46:48.748Z,97056.77
2024-01-16T20:49:18.910Z,97057.64
2024-01-16T20:51:47.476Z,97060.02
2024-01-16T20:54:17.059Z,97063.62
2024-01-16T20:56:47.000Z,97064.98
2024-01-16T20:59:15.031Z,97067.46
2024-01-16T21:01:43.332Z,97065.14
2024-01-16T21:04:11.415Z,97067.26
2024-01-16T21:06:39.724Z,97069.02
2024-01-16T21:09:08.118Z,97070.16
2024-01-16T21:11:36.572Z,97076.96
2024-01-16T21:14:05.233Z,97079.61
2024-01-16T21:16:33.479Z,97080.75
2024-01-16T21:19:06.876Z,97084.72
2024-01-16T21:21:35.130Z,97091.84
2024-01-16T21:24:05.771Z,97093.48
2024-01-16T21:26:33.751Z,97097.55
2024-01-16T21:29:01.840Z,97098.41
2024-01-16T21:31:29.988Z,97097.61
2024-01-16T21:33:59.708Z,97101.88
2024-01-16T21:36:27.940Z,97109.47
2024-01-16T21:38:56.181Z,97109.96
2024-01-16T21:41:24.277Z,97107.52
2024-01-16T21:43:52.670Z,97109.89
2024-01-16T21:46:21.003Z,97109.89
2024-01-16T21:48:49.414Z,97107.17
2024-01-16T21:51:18.234Z,97102.39
2024-01-16T21:53:46.352Z,97100.58
2024-01-16T21:56:14.638Z,97102.09
2024-01-16T21:58:42.773Z,97098.40
2024-01-16T22:01:13.844Z,97096.37
2024-01-16T22:03:42.141Z,97101.19
2024-01-16T22:06:10.374Z,97099.99
2024-01-16T22:08:38.766Z,97101.17
2024-01-16T22:11:07.004Z,97100.27
2024-01-16T22:13:35.227Z,97098.97
2024-01-16T22:16:04.832Z,97096.30
2024-01-16T22:18:33.280Z,97093.85
2024-01-16T22:21:03.171Z,97089.18
2024-01-16T22:23:31.780Z,97087.22
2024-01-16T22:26:01.551Z,97087.05
2024-01-16T22:28:29.701Z,97084.15
2024-01-16T22:30:58.204Z,97084.95
2024-01-16T22:33:28.447Z,97085.20
2024-01-16T22:35:57.063Z,97085.50
2024-01-16T22:38:25.311Z,97081.11
2024-01-16T22:40:53.550Z,97083.70
2024-01-16T22:43:22.911Z,97083.11
2024-01-16T22:45:52.854Z,97086.65
2024-01-16T22:48:21.362Z,97091.27
2024-01-16T22:50:52.205Z,97092.65
2024-01-16T22:53:20.633Z,97088.98
2024-01-16T22:55:50.025Z,97081.55
2024-01-16T22:58:18.538Z,97072.81
2024-01-16T23:00:53.158Z,97066.92
2024-01-16T23:03:22.020Z,97069.19
2024-01-16T23:05:50.198Z,97069.06
2024-01-16T23:08:19.970Z,97066.76
2024-01-16T23:10:48.494Z,97064.02
2024-01-16T23:13:17.823Z,97064.69
2024-01-16T23:15:46.766Z,97062.52
2024-01-16T23:18:15.244Z,97062.80
2024-01-16T23:20:43.437Z,97057.19
2024-01-16T23:23:13.788Z,97041.14
2024-01-16T23:25:46.693Z,97041.38
2024-01-16T23:28:14.835Z,97036.58
2024-01-16T23:30:42.893Z,97021.23
2024-01-16T23:33:11.014Z,97014.76
2024-01-16T23:35:39.225Z,97004.44
2024-01-16T23:38:07.412Z,97009.73
2024-01-16T23:40:35.343Z,97010.93
2024-01-16T23:43:03.499Z,97004.55
2024-01-16T23:45:33.940Z,97002.80
2024-01-16T23:48:03.042Z,97006.69
2024-01-16T23:50:31.532Z,96995.95
2024-01-16T23:53:00.537Z,96985.09
2024-01-16T23:55:29.129Z,96980.48
2024-01-16T23:57:57.751Z,96981.55
